sensor_id;sensor_type;location;lat;lon;timestamp;P1;durP1;ratioP1;P2;durP2;ratioP2
54193;SDS011;40102;50.906;6.972;2023-06-22T00:01:23;4.53;;;3.03;;
54193;SDS011;40102;50.906;6.972;2023-06-22T00:03:49;3.83;;;3.22;;
54193;SDS011;40102;50.906;6.972;2023-06-22T00:06:14;4.65;;;3.28;;
54193;SDS011;40102;50.906;6.972;2023-06-22T00:08:40;3.65;;;3.05;;
54193;SDS011;40102;50.906;6.972;2023-06-22T00:11:05;5.53;;;3.10;;
54193;SDS011;40102;50.906;6.972;2023-06-22T00:13:31;4.18;;;3.03;;
54193;SDS011;40102;50.906;6.972;2023-06-22T00:15:56;3.83;;;3.20;;
54193;SDS011;40102;50.906;6.972;2023-06-22T00:18:21;3.75;;;3.00;;
54193;SDS011;40102;50.906;6.972;2023-06-22T00:20:46;4.20;;;3.08;;
54193;SDS011;40102;50.906;6.972;2023-06-22T00:23:12;3.42;;;2.88;;
54193;SDS011;40102;50.906;6.972;2023-06-22T00:25:39;3.78;;;3.00;;
54193;SDS011;40102;50.906;6.972;2023-06-22T00:28:07;3.72;;;3.10;;
54193;SDS011;40102;50.906;6.972;2023-06-22T00:30:33;4.47;;;3.10;;
54193;SDS011;40102;50.906;6.972;2023-06-22T00:32:59;3.95;;;3.15;;
54193;SDS011;40102;50.906;6.972;2023-06-22T00:35:25;3.88;;;3.08;;
54193;SDS011;40102;50.906;6.972;2023-06-22T00:38:08;3.30;;;3.00;;
54193;SDS011;40102;50.906;6.972;2023-06-22T00:40:34;3.20;;;2.90;;
54193;SDS011;40102;50.906;6.972;2023-06-22T00:42:59;3.88;;;2.97;;
54193;SDS011;40102;50.906;6.972;2023-06-22T00:45:25;3.15;;;2.78;;
54193;SDS011;40102;50.906;6.972;2023-06-22T00:47:57;3.58;;;3.25;;
54193;SDS011;40102;50.906;6.972;2023-06-22T00:50:27;3.60;;;2.95;;
54193;SDS011;40102;50.906;6.972;2023-06-22T00:52:58;3.42;;;2.97;;
54193;SDS011;40102;50.906;6.972;2023-06-22T00:55:25;3.17;;;2.90;;
54193;SDS011;40102;50.906;6.972;2023-06-22T00:57:52;4.20;;;3.03;;
54193;SDS011;40102;50.906;6.972;2023-06-22T01:00:22;3.88;;;3.33;;
54193;SDS011;40102;50.906;6.972;2023-06-22T01:02:49;3.30;;;3.00;;
54193;SDS011;40102;50.906;6.972;2023-06-22T01:05:21;3.67;;;3.28;;
54193;SDS011;40102;50.906;6.972;2023-06-22T01:10:40;3.80;;;3.00;;
54193;SDS011;40102;50.906;6.972;2023-06-22T01:15:55;3.53;;;2.90;;
54193;SDS011;40102;50.906;6.972;2023-06-22T01:18:26;4.40;;;3.40;;
54193;SDS011;40102;50.906;6.972;2023-06-22T01:20:55;3.30;;;3.00;;
54193;SDS011;40102;50.906;6.972;2023-06-22T01:26:38;3.80;;;3.10;;
54193;SDS011;40102;50.906;6.972;2023-06-22T01:29:08;3.20;;;2.90;;
54193;SDS011;40102;50.906;6.972;2023-06-22T01:31:37;3.40;;;3.10;;
54193;SDS011;40102;50.906;6.972;2023-06-22T01:34:05;4.38;;;3.10;;
54193;SDS011;40102;50.906;6.972;2023-06-22T01:36:31;3.45;;;2.95;;
54193;SDS011;40102;50.906;6.972;2023-06-22T01:38:58;3.50;;;2.95;;
54193;SDS011;40102;50.906;6.972;2023-06-22T01:41:25;4.93;;;2.95;;
54193;SDS011;40102;50.906;6.972;2023-06-22T01:43:51;2.92;;;2.65;;
54193;SDS011;40102;50.906;6.972;2023-06-22T01:46:18;3.95;;;2.92;;
54193;SDS011;40102;50.906;6.972;2023-06-22T01:48:44;5.68;;;3.25;;
54193;SDS011;40102;50.906;6.972;2023-06-22T01:51:11;4.15;;;2.95;;
54193;SDS011;40102;50.906;6.972;2023-06-22T01:53:36;3.58;;;3.03;;
54193;SDS011;40102;50.906;6.972;2023-06-22T01:56:02;12.65;;;3.17;;
54193;SDS011;40102;50.906;6.972;2023-06-22T01:58:28;3.10;;;2.80;;
54193;SDS011;40102;50.906;6.972;2023-06-22T02:01:09;3.42;;;3.00;;
54193;SDS011;40102;50.906;6.972;2023-06-22T02:03:41;3.20;;;2.88;;
54193;SDS011;40102;50.906;6.972;2023-06-22T02:06:10;4.00;;;2.97;;
54193;SDS011;40102;50.906;6.972;2023-06-22T02:08:49;4.03;;;3.35;;
54193;SDS011;40102;50.906;6.972;2023-06-22T02:11:20;4.10;;;3.08;;
54193;SDS011;40102;50.906;6.972;2023-06-22T02:13:46;3.88;;;3.00;;
54193;SDS011;40102;50.906;6.972;2023-06-22T02:16:13;3.47;;;3.17;;
54193;SDS011;40102;50.906;6.972;2023-06-22T02:18:47;3.80;;;3.40;;
54193;SDS011;40102;50.906;6.972;2023-06-22T02:21:17;3.38;;;3.08;;
54193;SDS011;40102;50.906;6.972;2023-06-22T02:23:43;3.28;;;2.97;;
54193;SDS011;40102;50.906;6.972;2023-06-22T02:26:08;3.88;;;3.08;;
54193;SDS011;40102;50.906;6.972;2023-06-22T02:28:34;4.57;;;3.60;;
54193;SDS011;40102;50.906;6.972;2023-06-22T02:30:59;3.67;;;3.25;;
54193;SDS011;40102;50.906;6.972;2023-06-22T02:33:24;3.15;;;2.83;;
54193;SDS011;40102;50.906;6.972;2023-06-22T02:35:50;3.78;;;3.22;;
54193;SDS011;40102;50.906;6.972;2023-06-22T02:38:15;4.15;;;3.40;;
54193;SDS011;40102;50.906;6.972;2023-06-22T02:40:42;4.50;;;3.55;;
54193;SDS011;40102;50.906;6.972;2023-06-22T02:43:07;3.80;;;3.28;;
54193;SDS011;40102;50.906;6.972;2023-06-22T02:45:33;4.22;;;3.30;;
54193;SDS011;40102;50.906;6.972;2023-06-22T02:47:58;3.65;;;3.28;;
54193;SDS011;40102;50.906;6.972;2023-06-22T02:50:29;3.38;;;3.00;;
54193;SDS011;40102;50.906;6.972;2023-06-22T02:52:55;2.83;;;2.53;;
54193;SDS011;40102;50.906;6.972;2023-06-22T02:55:20;5.10;;;2.97;;
54193;SDS011;40102;50.906;6.972;2023-06-22T02:57:45;4.63;;;3.00;;
54193;SDS011;40102;50.906;6.972;2023-06-22T03:00:12;3.20;;;2.80;;
54193;SDS011;40102;50.906;6.972;2023-06-22T03:02:47;3.30;;;2.75;;
54193;SDS011;40102;50.906;6.972;2023-06-22T03:05:13;3.10;;;2.80;;
54193;SDS011;40102;50.906;6.972;2023-06-22T03:07:40;3.22;;;2.80;;
54193;SDS011;40102;50.906;6.972;2023-06-22T03:10:07;4.88;;;3.25;;
54193;SDS011;40102;50.906;6.972;2023-06-22T03:12:34;4.10;;;3.25;;
54193;SDS011;40102;50.906;6.972;2023-06-22T03:14:59;4.28;;;3.65;;
54193;SDS011;40102;50.906;6.972;2023-06-22T03:17:24;3.75;;;3.35;;
54193;SDS011;40102;50.906;6.972;2023-06-22T03:19:50;4.07;;;3.67;;
54193;SDS011;40102;50.906;6.972;2023-06-22T03:22:15;4.38;;;3.75;;
54193;SDS011;40102;50.906;6.972;2023-06-22T03:24:40;3.90;;;3.38;;
54193;SDS011;40102;50.906;6.972;2023-06-22T03:27:06;3.95;;;3.28;;
54193;SDS011;40102;50.906;6.972;2023-06-22T03:29:31;3.65;;;3.28;;
54193;SDS011;40102;50.906;6.972;2023-06-22T03:31:57;4.15;;;3.42;;
54193;SDS011;40102;50.906;6.972;2023-06-22T03:34:22;3.63;;;3.25;;
54193;SDS011;40102;50.906;6.972;2023-06-22T03:36:47;3.95;;;3.35;;
54193;SDS011;40102;50.906;6.972;2023-06-22T03:39:13;3.88;;;3.20;;
54193;SDS011;40102;50.906;6.972;2023-06-22T03:41:38;5.18;;;3.50;;
54193;SDS011;40102;50.906;6.972;2023-06-22T03:44:04;4.28;;;3.35;;
54193;SDS011;40102;50.906;6.972;2023-06-22T03:46:29;3.63;;;3.10;;
54193;SDS011;40102;50.906;6.972;2023-06-22T03:48:55;4.10;;;3.15;;
54193;SDS011;40102;50.906;6.972;2023-06-22T03:51:20;4.00;;;3.20;;
54193;SDS011;40102;50.906;6.972;2023-06-22T03:53:45;3.47;;;3.17;;
54193;SDS011;40102;50.906;6.972;2023-06-22T03:56:11;3.53;;;3.20;;
54193;SDS011;40102;50.906;6.972;2023-06-22T03:58:36;3.72;;;3.10;;
54193;SDS011;40102;50.906;6.972;2023-06-22T04:01:07;4.70;;;3.30;;
54193;SDS011;40102;50.906;6.972;2023-06-22T04:03:36;4.68;;;3.40;;
54193;SDS011;40102;50.906;6.972;2023-06-22T04:06:01;3.85;;;3.20;;
54193;SDS011;40102;50.906;6.972;2023-06-22T04:08:27;8.15;;;3.88;;
54193;SDS011;40102;50.906;6.972;2023-06-22T04:10:52;5.45;;;4.60;;
54193;SDS011;40102;50.906;6.972;2023-06-22T04:13:17;7.93;;;4.55;;
54193;SDS011;40102;50.906;6.972;2023-06-22T04:15:43;4.43;;;3.83;;
54193;SDS011;40102;50.906;6.972;2023-06-22T04:18:08;4.88;;;3.75;;
54193;SDS011;40102;50.906;6.972;2023-06-22T04:20:33;5.05;;;4.30;;
54193;SDS011;40102;50.906;6.972;2023-06-22T04:22:59;5.30;;;4.28;;
54193;SDS011;40102;50.906;6.972;2023-06-22T04:25:24;4.53;;;4.13;;
54193;SDS011;40102;50.906;6.972;2023-06-22T04:27:50;5.25;;;4.30;;
54193;SDS011;40102;50.906;6.972;2023-06-22T04:30:15;4.93;;;4.10;;
54193;SDS011;40102;50.906;6.972;2023-06-22T04:32:42;4.88;;;4.30;;
54193;SDS011;40102;50.906;6.972;2023-06-22T04:35:08;5.75;;;4.00;;
54193;SDS011;40102;50.906;6.972;2023-06-22T04:37:33;5.47;;;4.20;;
54193;SDS011;40102;50.906;6.972;2023-06-22T04:39:59;5.30;;;4.43;;
54193;SDS011;40102;50.906;6.972;2023-06-22T04:42:27;5.15;;;4.60;;
54193;SDS011;40102;50.906;6.972;2023-06-22T04:44:53;5.20;;;4.70;;
54193;SDS011;40102;50.906;6.972;2023-06-22T04:47:18;5.35;;;4.10;;
54193;SDS011;40102;50.906;6.972;2023-06-22T04:49:44;5.88;;;4.45;;
54193;SDS011;40102;50.906;6.972;2023-06-22T04:52:10;5.03;;;4.30;;
54193;SDS011;40102;50.906;6.972;2023-06-22T04:54:37;4.40;;;4.00;;
54193;SDS011;40102;50.906;6.972;2023-06-22T04:57:07;4.63;;;4.22;;
54193;SDS011;40102;50.906;6.972;2023-06-22T04:59:35;8.00;;;4.30;;
54193;SDS011;40102;50.906;6.972;2023-06-22T05:02:01;4.60;;;4.20;;
54193;SDS011;40102;50.906;6.972;2023-06-22T05:04:28;5.10;;;4.10;;
54193;SDS011;40102;50.906;6.972;2023-06-22T05:06:56;4.63;;;3.67;;
54193;SDS011;40102;50.906;6.972;2023-06-22T05:09:22;4.95;;;4.43;;
54193;SDS011;40102;50.906;6.972;2023-06-22T05:11:48;4.43;;;3.92;;
54193;SDS011;40102;50.906;6.972;2023-06-22T05:14:14;5.72;;;3.85;;
54193;SDS011;40102;50.906;6.972;2023-06-22T05:16:41;3.75;;;3.45;;
54193;SDS011;40102;50.906;6.972;2023-06-22T05:19:07;4.40;;;3.80;;
54193;SDS011;40102;50.906;6.972;2023-06-22T05:21:32;3.88;;;3.47;;
54193;SDS011;40102;50.906;6.972;2023-06-22T05:23:58;4.05;;;3.65;;
54193;SDS011;40102;50.906;6.972;2023-06-22T05:26:27;4.90;;;3.88;;
54193;SDS011;40102;50.906;6.972;2023-06-22T05:28:54;5.53;;;4.30;;
54193;SDS011;40102;50.906;6.972;2023-06-22T05:31:19;5.07;;;4.20;;
54193;SDS011;40102;50.906;6.972;2023-06-22T05:33:45;4.88;;;4.13;;
54193;SDS011;40102;50.906;6.972;2023-06-22T05:36:11;5.25;;;4.20;;
54193;SDS011;40102;50.906;6.972;2023-06-22T05:38:37;6.03;;;4.63;;
54193;SDS011;40102;50.906;6.972;2023-06-22T05:41:04;6.68;;;5.38;;
54193;SDS011;40102;50.906;6.972;2023-06-22T05:43:29;6.10;;;5.07;;
54193;SDS011;40102;50.906;6.972;2023-06-22T05:45:55;7.18;;;5.68;;
54193;SDS011;40102;50.906;6.972;2023-06-22T05:48:20;7.13;;;5.32;;
54193;SDS011;40102;50.906;6.972;2023-06-22T05:50:46;5.75;;;5.15;;
54193;SDS011;40102;50.906;6.972;2023-06-22T05:53:11;6.03;;;5.15;;
54193;SDS011;40102;50.906;6.972;2023-06-22T05:55:37;5.75;;;5.10;;
54193;SDS011;40102;50.906;6.972;2023-06-22T05:58:02;6.00;;;5.18;;
54193;SDS011;40102;50.906;6.972;2023-06-22T06:00:28;5.55;;;4.93;;
54193;SDS011;40102;50.906;6.972;2023-06-22T06:02:54;5.07;;;4.57;;
54193;SDS011;40102;50.906;6.972;2023-06-22T06:05:19;5.65;;;5.00;;
54193;SDS011;40102;50.906;6.972;2023-06-22T06:07:45;5.47;;;4.97;;
54193;SDS011;40102;50.906;6.972;2023-06-22T06:10:11;6.78;;;5.60;;
54193;SDS011;40102;50.906;6.972;2023-06-22T06:12:36;7.70;;;5.57;;
54193;SDS011;40102;50.906;6.972;2023-06-22T06:15:02;6.88;;;5.47;;
54193;SDS011;40102;50.906;6.972;2023-06-22T06:17:29;8.13;;;5.90;;
54193;SDS011;40102;50.906;6.972;2023-06-22T06:19:54;7.45;;;5.40;;
54193;SDS011;40102;50.906;6.972;2023-06-22T06:22:20;6.55;;;5.43;;
54193;SDS011;40102;50.906;6.972;2023-06-22T06:24:47;6.80;;;5.50;;
54193;SDS011;40102;50.906;6.972;2023-06-22T06:27:13;7.53;;;5.80;;
54193;SDS011;40102;50.906;6.972;2023-06-22T06:29:39;5.25;;;4.70;;
54193;SDS011;40102;50.906;6.972;2023-06-22T06:32:08;5.67;;;4.83;;
54193;SDS011;40102;50.906;6.972;2023-06-22T06:34:40;7.35;;;5.00;;
54193;SDS011;40102;50.906;6.972;2023-06-22T06:37:10;9.18;;;5.18;;
54193;SDS011;40102;50.906;6.972;2023-06-22T06:39:36;5.57;;;4.90;;
54193;SDS011;40102;50.906;6.972;2023-06-22T06:42:01;6.05;;;5.05;;
54193;SDS011;40102;50.906;6.972;2023-06-22T06:44:27;7.07;;;4.93;;
54193;SDS011;40102;50.906;6.972;2023-06-22T06:46:52;6.22;;;4.88;;
54193;SDS011;40102;50.906;6.972;2023-06-22T06:49:19;6.32;;;4.93;;
54193;SDS011;40102;50.906;6.972;2023-06-22T06:51:44;7.47;;;4.72;;
54193;SDS011;40102;50.906;6.972;2023-06-22T06:54:10;6.72;;;4.60;;
54193;SDS011;40102;50.906;6.972;2023-06-22T06:56:35;5.35;;;4.55;;
54193;SDS011;40102;50.906;6.972;2023-06-22T06:59:01;6.18;;;5.25;;
54193;SDS011;40102;50.906;6.972;2023-06-22T07:01:26;5.80;;;4.78;;
54193;SDS011;40102;50.906;6.972;2023-06-22T07:03:52;5.80;;;4.95;;
54193;SDS011;40102;50.906;6.972;2023-06-22T07:06:18;5.10;;;4.60;;
54193;SDS011;40102;50.906;6.972;2023-06-22T07:08:44;5.00;;;4.47;;
54193;SDS011;40102;50.906;6.972;2023-06-22T07:11:09;7.30;;;4.47;;
54193;SDS011;40102;50.906;6.972;2023-06-22T07:13:34;6.10;;;4.75;;
54193;SDS011;40102;50.906;6.972;2023-06-22T07:16:00;5.65;;;4.80;;
54193;SDS011;40102;50.906;6.972;2023-06-22T07:18:25;6.45;;;5.78;;
54193;SDS011;40102;50.906;6.972;2023-06-22T07:20:51;5.25;;;4.75;;
54193;SDS011;40102;50.906;6.972;2023-06-22T07:23:17;5.78;;;4.78;;
54193;SDS011;40102;50.906;6.972;2023-06-22T07:25:42;6.22;;;5.20;;
54193;SDS011;40102;50.906;6.972;2023-06-22T07:28:07;5.65;;;4.97;;
54193;SDS011;40102;50.906;6.972;2023-06-22T07:30:33;5.72;;;5.13;;
54193;SDS011;40102;50.906;6.972;2023-06-22T07:32:59;5.68;;;4.80;;
54193;SDS011;40102;50.906;6.972;2023-06-22T07:35:29;7.60;;;5.10;;
54193;SDS011;40102;50.906;6.972;2023-06-22T07:37:55;5.25;;;4.65;;
54193;SDS011;40102;50.906;6.972;2023-06-22T07:40:21;6.13;;;5.20;;
54193;SDS011;40102;50.906;6.972;2023-06-22T07:42:46;5.68;;;5.07;;
54193;SDS011;40102;50.906;6.972;2023-06-22T07:45:13;5.72;;;4.78;;
54193;SDS011;40102;50.906;6.972;2023-06-22T07:47:38;5.95;;;4.82;;
54193;SDS011;40102;50.906;6.972;2023-06-22T07:50:04;4.97;;;4.47;;
54193;SDS011;40102;50.906;6.972;2023-06-22T07:52:36;5.20;;;4.70;;
54193;SDS011;40102;50.906;6.972;2023-06-22T07:55:04;6.95;;;5.15;;
54193;SDS011;40102;50.906;6.972;2023-06-22T07:57:30;8.25;;;5.10;;
54193;SDS011;40102;50.906;6.972;2023-06-22T08:00:03;8.80;;;4.85;;
54193;SDS011;40102;50.906;6.972;2023-06-22T08:02:38;6.32;;;5.20;;
54193;SDS011;40102;50.906;6.972;2023-06-22T08:05:05;10.32;;;8.27;;
54193;SDS011;40102;50.906;6.972;2023-06-22T08:07:32;7.55;;;5.32;;
54193;SDS011;40102;50.906;6.972;2023-06-22T08:09:58;5.57;;;4.80;;
54193;SDS011;40102;50.906;6.972;2023-06-22T08:12:23;8.15;;;5.00;;
54193;SDS011;40102;50.906;6.972;2023-06-22T08:14:49;6.00;;;5.10;;
54193;SDS011;40102;50.906;6.972;2023-06-22T08:17:15;7.10;;;4.90;;
54193;SDS011;40102;50.906;6.972;2023-06-22T08:19:40;5.38;;;4.40;;
54193;SDS011;40102;50.906;6.972;2023-06-22T08:22:06;6.18;;;5.00;;
54193;SDS011;40102;50.906;6.972;2023-06-22T08:24:31;5.93;;;5.15;;
54193;SDS011;40102;50.906;6.972;2023-06-22T08:26:57;7.35;;;5.10;;
54193;SDS011;40102;50.906;6.972;2023-06-22T08:29:22;6.88;;;5.63;;
54193;SDS011;40102;50.906;6.972;2023-06-22T08:31:47;9.13;;;6.45;;
54193;SDS011;40102;50.906;6.972;2023-06-22T08:34:13;7.00;;;5.40;;
54193;SDS011;40102;50.906;6.972;2023-06-22T08:36:38;5.78;;;5.18;;
54193;SDS011;40102;50.906;6.972;2023-06-22T08:39:06;6.60;;;4.93;;
54193;SDS011;40102;50.906;6.972;2023-06-22T08:41:32;8.75;;;5.47;;
54193;SDS011;40102;50.906;6.972;2023-06-22T08:43:57;10.88;;;5.47;;
54193;SDS011;40102;50.906;6.972;2023-06-22T08:46:23;7.15;;;4.70;;
54193;SDS011;40102;50.906;6.972;2023-06-22T08:48:55;7.65;;;5.10;;
54193;SDS011;40102;50.906;6.972;2023-06-22T08:51:22;6.28;;;5.03;;
54193;SDS011;40102;50.906;6.972;2023-06-22T08:53:47;7.07;;;4.68;;
54193;SDS011;40102;50.906;6.972;2023-06-22T08:56:12;8.20;;;5.40;;
54193;SDS011;40102;50.906;6.972;2023-06-22T08:58:38;5.40;;;4.60;;
54193;SDS011;40102;50.906;6.972;2023-06-22T09:01:03;5.07;;;4.57;;
54193;SDS011;40102;50.906;6.972;2023-06-22T09:03:29;6.97;;;5.07;;
54193;SDS011;40102;50.906;6.972;2023-06-22T09:05:54;6.50;;;4.47;;
54193;SDS011;40102;50.906;6.972;2023-06-22T09:08:20;9.70;;;5.35;;
54193;SDS011;40102;50.906;6.972;2023-06-22T09:10:46;5.32;;;4.70;;
54193;SDS011;40102;50.906;6.972;2023-06-22T09:13:11;6.22;;;5.03;;
54193;SDS011;40102;50.906;6.972;2023-06-22T09:15:36;6.65;;;5.15;;
54193;SDS011;40102;50.906;6.972;2023-06-22T09:18:02;7.22;;;5.45;;
54193;SDS011;40102;50.906;6.972;2023-06-22T09:20:27;6.70;;;5.10;;
54193;SDS011;40102;50.906;6.972;2023-06-22T09:22:53;6.93;;;5.07;;
54193;SDS011;40102;50.906;6.972;2023-06-22T09:25:18;7.00;;;5.35;;
54193;SDS011;40102;50.906;6.972;2023-06-22T09:27:45;13.98;;;7.00;;
54193;SDS011;40102;50.906;6.972;2023-06-22T09:30:11;16.70;;;7.45;;
54193;SDS011;40102;50.906;6.972;2023-06-22T09:32:37;9.88;;;5.55;;
54193;SDS011;40102;50.906;6.972;2023-06-22T09:35:03;7.25;;;5.70;;
54193;SDS011;40102;50.906;6.972;2023-06-22T09:37:30;7.55;;;5.18;;
54193;SDS011;40102;50.906;6.972;2023-06-22T09:39:56;5.65;;;4.90;;
54193;SDS011;40102;50.906;6.972;2023-06-22T09:42:21;6.18;;;4.68;;
54193;SDS011;40102;50.906;6.972;2023-06-22T09:44:47;8.13;;;5.13;;
54193;SDS011;40102;50.906;6.972;2023-06-22T09:47:12;5.15;;;4.65;;
54193;SDS011;40102;50.906;6.972;2023-06-22T09:49:37;6.18;;;4.85;;
54193;SDS011;40102;50.906;6.972;2023-06-22T09:52:03;6.78;;;5.63;;
54193;SDS011;40102;50.906;6.972;2023-06-22T09:54:31;8.35;;;5.20;;
54193;SDS011;40102;50.906;6.972;2023-06-22T09:56:57;8.13;;;5.15;;
54193;SDS011;40102;50.906;6.972;2023-06-22T09:59:22;7.50;;;5.03;;
54193;SDS011;40102;50.906;6.972;2023-06-22T10:01:48;5.78;;;4.82;;
54193;SDS011;40102;50.906;6.972;2023-06-22T10:04:13;5.38;;;4.78;;
54193;SDS011;40102;50.906;6.972;2023-06-22T10:06:39;5.18;;;4.68;;
54193;SDS011;40102;50.906;6.972;2023-06-22T10:09:05;6.50;;;5.38;;
54193;SDS011;40102;50.906;6.972;2023-06-22T10:11:32;5.95;;;5.20;;
54193;SDS011;40102;50.906;6.972;2023-06-22T10:14:00;5.70;;;4.95;;
54193;SDS011;40102;50.906;6.972;2023-06-22T10:16:30;5.70;;;5.10;;
54193;SDS011;40102;50.906;6.972;2023-06-22T10:18:56;5.72;;;5.13;;
54193;SDS011;40102;50.906;6.972;2023-06-22T10:21:22;5.38;;;4.65;;
54193;SDS011;40102;50.906;6.972;2023-06-22T10:23:47;5.30;;;4.70;;
54193;SDS011;40102;50.906;6.972;2023-06-22T10:26:12;4.93;;;4.40;;
54193;SDS011;40102;50.906;6.972;2023-06-22T10:28:38;5.68;;;4.78;;
54193;SDS011;40102;50.906;6.972;2023-06-22T10:31:03;5.13;;;4.30;;
54193;SDS011;40102;50.906;6.972;2023-06-22T10:33:28;4.55;;;3.80;;
54193;SDS011;40102;50.906;6.972;2023-06-22T10:35:54;4.93;;;4.28;;
54193;SDS011;40102;50.906;6.972;2023-06-22T10:38:20;4.85;;;4.35;;
54193;SDS011;40102;50.906;6.972;2023-06-22T10:40:45;5.30;;;4.80;;
54193;SDS011;40102;50.906;6.972;2023-06-22T10:43:11;6.18;;;5.35;;
54193;SDS011;40102;50.906;6.972;2023-06-22T10:45:36;6.88;;;4.88;;
54193;SDS011;40102;50.906;6.972;2023-06-22T10:48:01;6.85;;;5.60;;
54193;SDS011;40102;50.906;6.972;2023-06-22T10:50:27;6.47;;;5.47;;
54193;SDS011;40102;50.906;6.972;2023-06-22T10:52:53;11.15;;;5.63;;
54193;SDS011;40102;50.906;6.972;2023-06-22T10:55:19;5.90;;;5.30;;
54193;SDS011;40102;50.906;6.972;2023-06-22T10:57:44;8.82;;;5.32;;
54193;SDS011;40102;50.906;6.972;2023-06-22T11:00:12;8.25;;;5.85;;
54193;SDS011;40102;50.906;6.972;2023-06-22T11:02:38;6.45;;;5.63;;
54193;SDS011;40102;50.906;6.972;2023-06-22T11:05:03;8.63;;;5.97;;
54193;SDS011;40102;50.906;6.972;2023-06-22T11:07:29;7.78;;;5.55;;
54193;SDS011;40102;50.906;6.972;2023-06-22T11:09:55;7.88;;;6.45;;
54193;SDS011;40102;50.906;6.972;2023-06-22T11:12:33;6.72;;;5.72;;
54193;SDS011;40102;50.906;6.972;2023-06-22T11:14:58;7.75;;;6.10;;
54193;SDS011;40102;50.906;6.972;2023-06-22T11:17:24;9.68;;;6.63;;
54193;SDS011;40102;50.906;6.972;2023-06-22T11:19:50;7.65;;;5.78;;
54193;SDS011;40102;50.906;6.972;2023-06-22T11:22:15;6.40;;;5.38;;
54193;SDS011;40102;50.906;6.972;2023-06-22T11:24:41;9.35;;;6.32;;
54193;SDS011;40102;50.906;6.972;2023-06-22T11:27:09;11.60;;;6.82;;
54193;SDS011;40102;50.906;6.972;2023-06-22T11:29:35;13.18;;;7.32;;
54193;SDS011;40102;50.906;6.972;2023-06-22T11:32:01;7.97;;;6.95;;
54193;SDS011;40102;50.906;6.972;2023-06-22T11:34:26;9.25;;;6.82;;
54193;SDS011;40102;50.906;6.972;2023-06-22T11:36:58;7.10;;;6.07;;
54193;SDS011;40102;50.906;6.972;2023-06-22T11:39:24;7.03;;;5.90;;
54193;SDS011;40102;50.906;6.972;2023-06-22T11:41:49;7.90;;;6.80;;
54193;SDS011;40102;50.906;6.972;2023-06-22T11:44:15;8.80;;;7.00;;
54193;SDS011;40102;50.906;6.972;2023-06-22T11:46:40;11.40;;;7.32;;
54193;SDS011;40102;50.906;6.972;2023-06-22T11:49:05;9.02;;;7.72;;
54193;SDS011;40102;50.906;6.972;2023-06-22T11:51:31;11.40;;;8.07;;
54193;SDS011;40102;50.906;6.972;2023-06-22T11:53:56;9.00;;;7.32;;
54193;SDS011;40102;50.906;6.972;2023-06-22T11:56:22;8.15;;;6.70;;
54193;SDS011;40102;50.906;6.972;2023-06-22T11:58:48;9.18;;;7.47;;
54193;SDS011;40102;50.906;6.972;2023-06-22T12:01:13;10.00;;;7.70;;
54193;SDS011;40102;50.906;6.972;2023-06-22T12:03:40;8.45;;;7.32;;
54193;SDS011;40102;50.906;6.972;2023-06-22T12:06:05;11.68;;;8.75;;
54193;SDS011;40102;50.906;6.972;2023-06-22T12:08:31;10.55;;;7.82;;
54193;SDS011;40102;50.906;6.972;2023-06-22T12:10:56;12.98;;;7.97;;
54193;SDS011;40102;50.906;6.972;2023-06-22T12:13:22;10.23;;;7.75;;
54193;SDS011;40102;50.906;6.972;2023-06-22T12:15:47;10.75;;;7.38;;
54193;SDS011;40102;50.906;6.972;2023-06-22T12:18:12;7.20;;;6.47;;
54193;SDS011;40102;50.906;6.972;2023-06-22T12:20:40;7.60;;;6.20;;
54193;SDS011;40102;50.906;6.972;2023-06-22T12:23:05;8.35;;;6.03;;
54193;SDS011;40102;50.906;6.972;2023-06-22T12:25:30;9.60;;;7.18;;
54193;SDS011;40102;50.906;6.972;2023-06-22T12:27:56;7.32;;;6.47;;
54193;SDS011;40102;50.906;6.972;2023-06-22T12:30:21;8.23;;;6.97;;
54193;SDS011;40102;50.906;6.972;2023-06-22T12:32:47;8.82;;;6.72;;
54193;SDS011;40102;50.906;6.972;2023-06-22T12:35:12;8.52;;;6.95;;
54193;SDS011;40102;50.906;6.972;2023-06-22T12:37:41;9.25;;;6.70;;
54193;SDS011;40102;50.906;6.972;2023-06-22T12:40:08;10.43;;;7.43;;
54193;SDS011;40102;50.906;6.972;2023-06-22T12:42:34;10.43;;;8.25;;
54193;SDS011;40102;50.906;6.972;2023-06-22T12:44:59;8.48;;;7.53;;
54193;SDS011;40102;50.906;6.972;2023-06-22T12:47:24;8.50;;;7.57;;
54193;SDS011;40102;50.906;6.972;2023-06-22T12:49:50;9.57;;;7.95;;
54193;SDS011;40102;50.906;6.972;2023-06-22T12:52:15;8.45;;;7.20;;
54193;SDS011;40102;50.906;6.972;2023-06-22T12:54:41;8.52;;;7.63;;
54193;SDS011;40102;50.906;6.972;2023-06-22T12:57:06;9.20;;;7.07;;
54193;SDS011;40102;50.906;6.972;2023-06-22T12:59:31;9.38;;;6.88;;
54193;SDS011;40102;50.906;6.972;2023-06-22T13:01:57;8.27;;;6.50;;
54193;SDS011;40102;50.906;6.972;2023-06-22T13:04:22;7.68;;;6.57;;
54193;SDS011;40102;50.906;6.972;2023-06-22T13:06:48;7.32;;;6.55;;
54193;SDS011;40102;50.906;6.972;2023-06-22T13:09:14;10.25;;;7.05;;
54193;SDS011;40102;50.906;6.972;2023-06-22T13:11:40;8.57;;;6.57;;
54193;SDS011;40102;50.906;6.972;2023-06-22T13:14:05;8.02;;;6.95;;
54193;SDS011;40102;50.906;6.972;2023-06-22T13:16:31;8.07;;;6.47;;
54193;SDS011;40102;50.906;6.972;2023-06-22T13:18:56;7.88;;;6.60;;
54193;SDS011;40102;50.906;6.972;2023-06-22T13:21:22;7.40;;;6.70;;
54193;SDS011;40102;50.906;6.972;2023-06-22T13:23:47;7.38;;;6.63;;
54193;SDS011;40102;50.906;6.972;2023-06-22T13:26:12;9.20;;;6.82;;
54193;SDS011;40102;50.906;6.972;2023-06-22T13:28:38;7.18;;;6.20;;
54193;SDS011;40102;50.906;6.972;2023-06-22T13:31:03;8.27;;;6.53;;
54193;SDS011;40102;50.906;6.972;2023-06-22T13:33:28;8.05;;;6.32;;
54193;SDS011;40102;50.906;6.972;2023-06-22T13:35:54;8.15;;;5.90;;
54193;SDS011;40102;50.906;6.972;2023-06-22T13:38:19;6.38;;;5.78;;
54193;SDS011;40102;50.906;6.972;2023-06-22T13:40:45;7.90;;;6.03;;
54193;SDS011;40102;50.906;6.972;2023-06-22T13:43:10;7.05;;;5.63;;
54193;SDS011;40102;50.906;6.972;2023-06-22T13:45:36;7.70;;;5.95;;
54193;SDS011;40102;50.906;6.972;2023-06-22T13:48:01;5.93;;;5.28;;
54193;SDS011;40102;50.906;6.972;2023-06-22T13:50:27;5.88;;;5.28;;
54193;SDS011;40102;50.906;6.972;2023-06-22T13:52:54;7.65;;;5.93;;
54193;SDS011;40102;50.906;6.972;2023-06-22T13:55:19;7.32;;;5.45;;
54193;SDS011;40102;50.906;6.972;2023-06-22T13:57:46;6.65;;;4.90;;
54193;SDS011;40102;50.906;6.972;2023-06-22T14:00:11;5.60;;;5.00;;
54193;SDS011;40102;50.906;6.972;2023-06-22T14:02:37;5.00;;;4.50;;
54193;SDS011;40102;50.906;6.972;2023-06-22T14:05:03;5.43;;;4.47;;
54193;SDS011;40102;50.906;6.972;2023-06-22T14:07:29;5.95;;;4.50;;
54193;SDS011;40102;50.906;6.972;2023-06-22T14:09:54;6.72;;;4.50;;
54193;SDS011;40102;50.906;6.972;2023-06-22T14:12:19;4.38;;;3.97;;
54193;SDS011;40102;50.906;6.972;2023-06-22T14:14:45;4.20;;;3.63;;
54193;SDS011;40102;50.906;6.972;2023-06-22T14:17:10;3.60;;;3.30;;
54193;SDS011;40102;50.906;6.972;2023-06-22T14:19:36;3.47;;;3.17;;
54193;SDS011;40102;50.906;6.972;2023-06-22T14:22:02;3.30;;;3.00;;
54193;SDS011;40102;50.906;6.972;2023-06-22T14:24:27;3.35;;;2.88;;
54193;SDS011;40102;50.906;6.972;2023-06-22T14:26:53;3.95;;;3.30;;
54193;SDS011;40102;50.906;6.972;2023-06-22T14:29:20;3.15;;;2.85;;
54193;SDS011;40102;50.906;6.972;2023-06-22T14:31:45;3.80;;;3.25;;
54193;SDS011;40102;50.906;6.972;2023-06-22T14:34:11;3.40;;;3.10;;
54193;SDS011;40102;50.906;6.972;2023-06-22T14:36:37;5.22;;;3.60;;
54193;SDS011;40102;50.906;6.972;2023-06-22T14:39:02;3.85;;;3.40;;
54193;SDS011;40102;50.906;6.972;2023-06-22T14:41:29;4.93;;;3.70;;
54193;SDS011;40102;50.906;6.972;2023-06-22T14:43:55;4.40;;;4.00;;
54193;SDS011;40102;50.906;6.972;2023-06-22T14:46:20;4.00;;;3.60;;
54193;SDS011;40102;50.906;6.972;2023-06-22T14:48:46;3.97;;;3.25;;
54193;SDS011;40102;50.906;6.972;2023-06-22T14:51:11;4.93;;;3.80;;